createdAt,value
2023-04-02T00:00:20.482Z,9.20
2023-04-02T00:03:01.255Z,9.20
2023-04-02T00:05:37.185Z,9.20
2023-04-02T00:08:10.120Z,9.20
2023-04-02T00:10:47.391Z,9.10
2023-04-02T00:13:17.220Z,9.10
2023-04-02T00:15:49.663Z,9.10
2023-04-02T00:18:23.796Z,9.20
2023-04-02T00:21:13.969Z,9.20
2023-04-02T00:23:43.788Z,9.10
2023-04-02T00:26:42.593Z,9.10
2023-04-02T00:29:14.713Z,9.20
2023-04-02T00:31:44.468Z,9.20
2023-04-02T00:34:20.047Z,9.20
2023-04-02T00:36:47.643Z,9.20
2023-04-02T00:39:24.143Z,9.30
2023-04-02T00:41:58.730Z,9.40
2023-04-02T00:44:30.489Z,9.40
2023-04-02T00:46:57.850Z,9.50
2023-04-02T00:49:40.054Z,9.30
2023-04-02T00:52:11.855Z,9.20
2023-04-02T00:54:49.893Z,9.30
2023-04-02T00:57:23.440Z,9.10
2023-04-02T01:00:12.665Z,9.20
2023-04-02T01:02:40.985Z,9.10
2023-04-02T01:05:16.894Z,9.10
2023-04-02T01:08:09.440Z,9.10
2023-04-02T01:10:42.184Z,9.10
2023-04-02T01:13:18.252Z,9.10
2023-04-02T01:16:16.040Z,9.20
2023-04-02T01:18:46.467Z,9.20
2023-04-02T01:21:31.470Z,9.10
2023-04-02T01:24:05.934Z,9.10
2023-04-02T01:26:51.482Z,9.10
2023-04-02T01:29:23.892Z,9.20
2023-04-02T01:31:53.003Z,9.20
2023-04-02T01:34:25.139Z,9.20
2023-04-02T01:37:23.378Z,9.10
2023-04-02T01:40:08.858Z,9.20
2023-04-02T01:43:10.332Z,9.20
2023-04-02T01:45:37.528Z,9.10
2023-04-02T01:48:16.728Z,9.10
2023-04-02T01:50:45.836Z,9.10
2023-04-02T01:53:16.116Z,9.10
2023-04-02T01:55:46.085Z,9.00
2023-04-02T01:58:14.978Z,9.00
2023-04-02T02:00:53.377Z,8.90
2023-04-02T02:03:21.896Z,8.90
2023-04-02T02:05:48.959Z,8.90
2023-04-02T02:08:32.161Z,8.80
2023-04-02T02:10:59.481Z,8.80
2023-04-02T02:13:26.462Z,8.90
2023-04-02T02:15:56.510Z,8.80
2023-04-02T02:18:23.755Z,8.80
2023-04-02T02:20:52.312Z,8.90
2023-04-02T02:23:20.742Z,8.90
2023-04-02T02:25:48.092Z,8.80
2023-04-02T02:28:21.677Z,8.80
2023-04-02T02:30:54.237Z,8.80
2023-04-02T02:33:26.045Z,8.80
2023-04-02T02:35:58.515Z,8.80
2023-04-02T02:38:34.382Z,8.90
2023-04-02T02:41:16.464Z,8.90
2023-04-02T02:43:53.265Z,9.00
2023-04-02T02:46:23.949Z,9.00
2023-04-02T02:48:54.501Z,9.10
2023-04-02T02:51:28.587Z,9.00
2023-04-02T02:54:03.068Z,9.00
2023-04-02T02:56:32.492Z,9.00
2023-04-02T02:59:00.418Z,9.00
2023-04-02T03:01:31.124Z,9.10
2023-04-02T03:03:58.285Z,9.10
2023-04-02T03:06:25.600Z,9.10
2023-04-02T03:09:19.205Z,9.10
2023-04-02T03:12:02.485Z,9.10
2023-04-02T03:14:48.697Z,9.00
2023-04-02T03:17:20.420Z,8.90
2023-04-02T03:19:56.084Z,8.90
2023-04-02T03:22:36.021Z,8.90
2023-04-02T03:25:17.759Z,8.90
2023-04-02T03:27:49.360Z,8.80
2023-04-02T03:30:26.895Z,8.90
2023-04-02T03:33:03.415Z,8.80
2023-04-02T03:35:55.527Z,8.90
2023-04-02T03:38:32.046Z,8.90
2023-04-02T03:41:07.709Z,8.90
2023-04-02T03:43:42.021Z,9.00
2023-04-02T03:46:22.184Z,9.00
2023-04-02T03:48:54.875Z,8.90
2023-04-02T03:51:39.391Z,8.90
2023-04-02T03:54:12.548Z,8.90
2023-04-02T03:56:40.163Z,9.00
2023-04-02T03:59:39.673Z,8.90
2023-04-02T04:02:43.365Z,9.00
2023-04-02T04:05:26.206Z,8.90
2023-04-02T04:07:59.446Z,8.90
2023-04-02T04:10:28.136Z,8.90
2023-04-02T04:13:02.655Z,8.90
2023-04-02T04:15:48.045Z,8.90
2023-04-02T04:18:42.956Z,8.90
2023-04-02T04:21:29.917Z,8.90
2023-04-02T04:24:16.569Z,9.00
2023-04-02T04:27:12.837Z,9.00
2023-04-02T04:29:55.902Z,8.90
2023-04-02T04:32:33.849Z,8.90
2023-04-02T04:35:15.621Z,9.00
2023-04-02T04:37:49.597Z,9.10
2023-04-02T04:40:21.299Z,9.00
2023-04-02T04:42:51.381Z,9.00
2023-04-02T04:45:36.684Z,8.90
2023-04-02T04:48:15.295Z,8.90
2023-04-02T04:50:54.622Z,8.90
2023-04-02T04:53:23.979Z,8.80
2023-04-02T04:56:15.896Z,8.90
2023-04-02T04:59:02.486Z,9.10
2023-04-02T05:01:47.933Z,9.10
2023-04-02T05:04:51.692Z,9.00
2023-04-02T05:07:36.466Z,9.00
2023-04-02T05:10:15.053Z,9.10
2023-04-02T05:12:50.804Z,9.10
2023-04-02T05:15:22.819Z,9.20
2023-04-02T05:17:55.876Z,9.30
2023-04-02T05:20:22.592Z,9.30
2023-04-02T05:23:19.888Z,9.20
2023-04-02T05:25:54.640Z,9.20
2023-04-02T05:28:45.553Z,9.20
2023-04-02T05:31:14.870Z,9.30
2023-04-02T05:33:47.455Z,9.30
2023-04-02T05:36:34.758Z,9.30
2023-04-02T05:39:01.926Z,9.20
2023-04-02T05:41:38.429Z,9.20
2023-04-02T05:44:24.525Z,9.30
2023-04-02T05:47:06.168Z,9.40
2023-04-02T05:50:12.748Z,9.30
2023-04-02T05:52:47.456Z,9.20
2023-04-02T05:55:17.577Z,9.20
2023-04-02T05:58:10.452Z,9.20
2023-04-02T06:00:53.961Z,9.20
2023-04-02T06:03:24.148Z,9.20
2023-04-02T06:05:53.459Z,9.30
2023-04-02T06:08:39.041Z,9.40
2023-04-02T06:11:13.603Z,9.20
2023-04-02T06:13:40.421Z,9.20
2023-04-02T06:16:07.672Z,9.30
2023-04-02T06:18:36.331Z,9.30
2023-04-02T06:21:05.137Z,9.30
2023-04-02T06:23:50.024Z,9.20
2023-04-02T06:26:58.185Z,9.20
2023-04-02T06:29:40.066Z,9.30
2023-04-02T06:32:08.582Z,9.30
2023-04-02T06:34:40.884Z,9.20
2023-04-02T06:37:19.513Z,9.30
2023-04-02T06:39:46.472Z,9.20
2023-04-02T06:42:31.398Z,9.30
2023-04-02T06:44:58.285Z,9.20
2023-04-02T06:47:39.374Z,9.20
2023-04-02T06:50:23.333Z,9.30
2023-04-02T06:53:06.475Z,9.20
2023-04-02T06:55:56.906Z,9.20
2023-04-02T06:58:23.898Z,9.20
2023-04-02T07:00:51.177Z,9.30
2023-04-02T07:03:26.071Z,9.30
2023-04-02T07:05:53.298Z,9.20
2023-04-02T07:08:20.872Z,9.20
2023-04-02T07:10:48.087Z,9.30
2023-04-02T07:13:21.635Z,9.20
2023-04-02T07:15:52.314Z,9.10
2023-04-02T07:18:25.052Z,9.10
2023-04-02T07:20:52.230Z,9.20
2023-04-02T07:23:21.090Z,9.30
2023-04-02T07:25:55.311Z,9.30
2023-04-02T07:28:22.995Z,9.40
2023-04-02T07:30:51.297Z,9.30
2023-04-02T07:33:21.149Z,9.20
2023-04-02T07:35:48.980Z,9.10
2023-04-02T07:38:15.943Z,9.10
2023-04-02T07:40:42.848Z,9.20
2023-04-02T07:43:10.439Z,9.30
2023-04-02T07:45:37.760Z,9.40
2023-04-02T07:48:09.666Z,9.40
2023-04-02T07:50:38.055Z,9.50
2023-04-02T07:53:05.334Z,9.40
2023-04-02T07:55:32.087Z,9.40
2023-04-02T07:57:59.974Z,9.50
2023-04-02T08:00:29.064Z,9.50
2023-04-02T08:02:56.635Z,9.40
2023-04-02T08:05:23.841Z,9.30
2023-04-02T08:07:57.103Z,9.30
2023-04-02T08:10:24.726Z,9.40
2023-04-02T08:12:51.811Z,9.40
2023-04-02T08:15:18.690Z,9.40
2023-04-02T08:17:46.601Z,9.50
2023-04-02T08:20:18.233Z,9.40
2023-04-02T08:22:48.888Z,9.20
2023-04-02T08:25:16.644Z,9.10
2023-04-02T08:27:43.428Z,9.20
2023-04-02T08:30:13.426Z,9.30
2023-04-02T08:32:41.309Z,9.40
2023-04-02T08:35:10.050Z,9.50
2023-04-02T08:37:37.738Z,9.50
2023-04-02T08:40:07.175Z,9.40
2023-04-02T08:43:04.321Z,9.40
2023-04-02T08:46:12.200Z,9.40
2023-04-02T08:48:43.233Z,9.50
2023-04-02T08:51:25.727Z,9.50
2023-04-02T08:54:01.501Z,9.70
2023-04-02T08:56:37.002Z,9.50
2023-04-02T08:59:28.584Z,9.40
2023-04-02T09:02:20.590Z,9.40
2023-04-02T09:04:47.587Z,9.50
2023-04-02T09:07:17.033Z,9.40
2023-04-02T09:09:46.656Z,9.40
2023-04-02T09:12:23.984Z,9.50
2023-04-02T09:15:29.498Z,9.40
2023-04-02T09:18:07.187Z,9.40
2023-04-02T09:20:34.407Z,9.50
2023-04-02T09:23:01.283Z,9.50
2023-04-02T09:25:32.199Z,9.50
2023-04-02T09:28:04.361Z,9.50
2023-04-02T09:31:00.332Z,9.40
2023-04-02T09:33:49.282Z,9.40
2023-04-02T09:36:39.520Z,9.40
2023-04-02T09:39:25.878Z,9.50
2023-04-02T09:42:02.880Z,9.60
2023-04-02T09:44:32.873Z,9.60
2023-04-02T09:47:12.208Z,9.50
2023-04-02T09:49:40.817Z,9.60
2023-04-02T09:52:37.231Z,9.50
2023-04-02T09:55:19.034Z,9.50
2023-04-02T09:57:50.621Z,9.60
2023-04-02T10:00:31.692Z,9.60
2023-04-02T10:03:07.715Z,9.50
2023-04-02T10:08:28.220Z,9.40
2023-04-02T10:10:59.614Z,9.40
2023-04-02T10:13:40.592Z,9.40
2023-04-02T10:16:40.770Z,9.30
2023-04-02T10:19:28.176Z,9.40
2023-04-02T10:21:57.034Z,9.40
2023-04-02T10:24:27.573Z,9.30
2023-04-02T10:27:25.766Z,9.40
2023-04-02T10:30:14.699Z,9.40
2023-04-02T10:32:56.916Z,9.50
2023-04-02T10:35:57.512Z,9.50
2023-04-02T10:38:48.987Z,9.30
2023-04-02T10:41:46.833Z,9.20
2023-04-02T10:44:27.568Z,9.00
2023-04-02T10:47:04.880Z,8.90
2023-04-02T10:49:53.389Z,8.90
2023-04-02T10:52:34.477Z,8.80
2023-04-02T10:55:32.179Z,8.80
2023-04-02T10:58:04.703Z,8.80
2023-04-02T11:00:39.161Z,8.90
2023-04-02T11:03:25.005Z,8.90
2023-04-02T11:05:59.556Z,8.90
2023-04-02T11:08:27.581Z,9.10
2023-04-02T11:11:03.308Z,9.10
2023-04-02T11:13:59.359Z,9.10
2023-04-02T11:16:27.586Z,9.00
2023-04-02T11:19:22.136Z,9.00
2023-04-02T11:22:26.326Z,9.00
2023-04-02T11:24:56.040Z,9.00
2023-04-02T11:27:32.940Z,9.00
2023-04-02T11:30:18.681Z,9.10
2023-04-02T11:32:49.471Z,9.00
2023-04-02T11:35:30.952Z,8.90
2023-04-02T11:38:06.121Z,9.00
2023-04-02T11:40:52.155Z,9.10
2023-04-02T11:43:34.461Z,9.10
2023-04-02T11:46:22.429Z,9.10
2023-04-02T11:48:49.416Z,9.20
2023-04-02T11:51:36.236Z,9.20
2023-04-02T11:54:04.908Z,9.20
2023-04-02T11:56:51.591Z,9.30
2023-04-02T11:59:38.461Z,9.50
2023-04-02T12:02:26.558Z,9.70
2023-04-02T12:05:05.044Z,9.90
2023-04-02T12:07:52.389Z,10.00
2023-04-02T12:10:27.861Z,10.30
2023-04-02T12:12:54.668Z,10.30
2023-04-02T12:15:47.187Z,10.40
2023-04-02T12:18:19.299Z,10.50
2023-04-02T12:20:49.439Z,10.20
2023-04-02T12:23:24.021Z,10.00
2023-04-02T12:25:58.596Z,9.90
2023-04-02T12:28:29.209Z,10.00
2023-04-02T12:31:25.302Z,9.90
2023-04-02T12:33:53.043Z,9.80
2023-04-02T12:36:22.318Z,9.70
2023-04-02T12:38:55.558Z,9.70
2023-04-02T12:41:32.360Z,9.70
2023-04-02T12:44:20.159Z,9.60
2023-04-02T12:46:47.963Z,9.70
2023-04-02T12:49:40.181Z,9.70
2023-04-02T12:52:13.264Z,9.70
2023-04-02T12:54:53.775Z,9.50
2023-04-02T12:57:33.409Z,9.50
2023-04-02T13:00:21.833Z,9.50
2023-04-02T13:02:58.553Z,9.40
2023-04-02T13:05:47.136Z,9.30
2023-04-02T13:08:47.279Z,9.20
2023-04-02T13:11:14.364Z,9.20
2023-04-02T13:13:43.638Z,9.20
2023-04-02T13:16:10.485Z,9.20
2023-04-02T13:18:38.743Z,9.20
2023-04-02T13:21:25.406Z,9.20
2023-04-02T13:23:52.962Z,9.20
2023-04-02T13:26:27.953Z,9.30
2023-04-02T13:29:18.727Z,9.30
2023-04-02T13:31:45.819Z,9.20
2023-04-02T13:34:12.638Z,9.20
2023-04-02T13:36:39.614Z,9.10
2023-04-02T13:39:06.782Z,9.00
2023-04-02T13:41:52.267Z,9.00
2023-04-02T13:44:22.436Z,8.90
2023-04-02T13:46:49.825Z,9.00
2023-04-02T13:49:16.940Z,8.90
2023-04-02T13:51:49.967Z,9.00
2023-04-02T13:54:41.048Z,9.00
2023-04-02T13:57:08.607Z,8.90
2023-04-02T13:59:35.594Z,8.90
2023-04-02T14:02:07.153Z,8.90
2023-04-02T14:04:39.017Z,9.00
2023-04-02T14:07:21.766Z,8.90
2023-04-02T14:09:55.149Z,8.90
2023-04-02T14:13:12.450Z,8.90
2023-04-02T14:15:47.206Z,9.00
2023-04-02T14:18:37.018Z,8.90
2023-04-02T14:21:09.874Z,8.90
2023-04-02T14:23:58.320Z,8.90
2023-04-02T14:27:14.734Z,8.90
2023-04-02T14:29:57.654Z,8.80
2023-04-02T14:32:53.743Z,8.80
2023-04-02T14:35:36.460Z,8.70
2023-04-02T14:38:22.887Z,8.60
2023-04-02T14:40:53.876Z,8.60
2023-04-02T14:43:31.768Z,8.60
2023-04-02T14:46:00.436Z,8.60
2023-04-02T14:48:27.594Z,8.60
2023-04-02T14:51:10.252Z,8.60
2023-04-02T14:53:52.639Z,8.60
2023-04-02T14:56:26.800Z,8.60
2023-04-02T14:59:50.455Z,8.60
2023-04-02T15:02:41.407Z,8.60
2023-04-02T15:05:22.515Z,8.50
2023-04-02T15:07:57.750Z,8.50
2023-04-02T15:10:31.663Z,8.60
2023-04-02T15:13:16.450Z,8.50
2023-04-02T15:15:54.327Z,8.40
2023-04-02T15:18:21.152Z,8.40
2023-04-02T15:21:02.958Z,8.40
2023-04-02T15:23:56.019Z,8.40
2023-04-02T15:26:47.509Z,8.40
2023-04-02T15:29:29.568Z,8.40
2023-04-02T15:32:19.801Z,8.40
2023-04-02T15:35:08.389Z,8.50
2023-04-02T15:38:05.014Z,8.40
2023-04-02T15:41:00.575Z,8.40
2023-04-02T15:43:48.409Z,8.40
2023-04-02T15:46:31.466Z,8.40
2023-04-02T15:49:01.211Z,8.30
2023-04-02T15:51:40.128Z,8.30
2023-04-02T15:54:41.001Z,8.50
2023-04-02T15:57:26.840Z,8.40
2023-04-02T16:00:02.493Z,8.40
2023-04-02T16:02:47.275Z,8.40
2023-04-02T16:05:36.571Z,8.40
2023-04-02T16:08:29.433Z,8.50
2023-04-02T16:10:56.415Z,8.60
2023-04-02T16:13:30.910Z,8.60
2023-04-02T16:16:03.496Z,8.50
2023-04-02T16:19:03.940Z,8.50
2023-04-02T16:21:44.818Z,8.70
2023-04-02T16:24:12.839Z,8.60
2023-04-02T16:27:21.409Z,8.50
2023-04-02T16:29:56.206Z,8.50
2023-04-02T16:32:39.359Z,8.50
2023-04-02T16:35:48.387Z,8.40
2023-04-02T16:39:12.809Z,8.50
2023-04-02T16:41:48.075Z,8.40
2023-04-02T16:44:24.349Z,8.30
2023-04-02T16:47:02.994Z,8.30
2023-04-02T16:49:36.561Z,8.30
2023-04-02T16:52:25.653Z,8.30
2023-04-02T16:55:04.490Z,8.40
2023-04-02T16:57:50.302Z,8.30
2023-04-02T17:00:17.753Z,8.30
2023-04-02T17:02:52.264Z,8.30
2023-04-02T17:05:41.786Z,8.40
2023-04-02T17:08:28.614Z,8.40
2023-04-02T17:11:10.291Z,8.40
2023-04-02T17:13:54.861Z,8.30
2023-04-02T17:16:35.426Z,8.30
2023-04-02T17:19:02.654Z,8.20
2023-04-02T17:21:31.109Z,8.30
2023-04-02T17:24:06.176Z,8.30
2023-04-02T17:26:36.795Z,8.30
2023-04-02T17:29:12.159Z,8.30
2023-04-02T17:31:42.296Z,8.20
2023-04-02T17:34:13.935Z,8.20
2023-04-02T17:36:56.369Z,8.20
2023-04-02T17:39:49.467Z,8.20
2023-04-02T17:42:31.295Z,8.20
2023-04-02T17:45:26.776Z,8.20
2023-04-02T17:48:02.947Z,8.10
2023-04-02T17:50:50.479Z,8.00
2023-04-02T17:53:28.715Z,8.00
2023-04-02T17:56:17.556Z,7.90
2023-04-02T17:59:12.571Z,8.00
2023-04-02T18:01:58.326Z,7.90
2023-04-02T18:04:47.981Z,7.90
2023-04-02T18:07:40.132Z,7.80
2023-04-02T18:10:45.611Z,7.80
2023-04-02T18:13:35.754Z,7.80
2023-04-02T18:16:43.812Z,7.60
2023-04-02T18:19:21.316Z,7.40
2023-04-02T18:22:13.393Z,7.40
2023-04-02T18:25:21.949Z,7.40
2023-04-02T18:27:59.429Z,7.40
2023-04-02T18:30:31.110Z,7.30
2023-04-02T18:33:48.242Z,7.30
2023-04-02T18:36:50.981Z,7.30
2023-04-02T18:39:40.847Z,7.20
2023-04-02T18:42:36.172Z,7.20
2023-04-02T18:45:28.534Z,7.20
2023-04-02T18:48:07.255Z,7.30
2023-04-02T18:50:36.606Z,7.40
2023-04-02T18:53:17.109Z,7.40
2023-04-02T18:55:54.042Z,7.50
2023-04-02T18:58:46.382Z,7.40
2023-04-02T19:01:18.426Z,7.50
2023-04-02T19:04:09.155Z,7.40
2023-04-02T19:06:49.473Z,7.40
2023-04-02T19:09:24.801Z,7.30
2023-04-02T19:11:53.093Z,7.10
2023-04-02T19:14:21.404Z,7.10
2023-04-02T19:17:06.630Z,7.10
2023-04-02T19:19:56.188Z,7.00
2023-04-02T19:22:22.968Z,7.10
2023-04-02T19:25:07.982Z,7.10
2023-04-02T19:27:58.081Z,7.10
2023-04-02T19:30:46.779Z,7.10
2023-04-02T19:33:42.530Z,7.20
2023-04-02T19:36:41.929Z,7.20
2023-04-02T19:39:14.697Z,7.10
2023-04-02T19:41:53.242Z,7.00
2023-04-02T19:44:21.746Z,7.00
2023-04-02T19:46:51.473Z,7.00
2023-04-02T19:49:36.711Z,7.00
2023-04-02T19:52:03.583Z,7.00
2023-04-02T19:54:30.412Z,7.10
2023-04-02T19:56:57.350Z,7.10
2023-04-02T19:59:24.219Z,7.10
2023-04-02T20:01:51.032Z,7.10
2023-04-02T20:04:17.860Z,7.00
2023-04-02T20:06:44.755Z,7.10
2023-04-02T20:09:11.610Z,7.00
2023-04-02T20:11:39.103Z,7.00
2023-04-02T20:14:06.321Z,7.00
2023-04-02T20:16:38.787Z,7.00
2023-04-02T20:19:05.651Z,6.90
2023-04-02T20:21:38.313Z,6.90
2023-04-02T20:24:12.203Z,6.90
2023-04-02T20:26:39.006Z,6.90
2023-04-02T20:29:05.878Z,6.90
2023-04-02T20:31:34.214Z,6.80
2023-04-02T20:34:02.958Z,6.90
2023-04-02T20:36:29.878Z,6.80
2023-04-02T20:38:57.542Z,6.80
2023-04-02T20:41:27.544Z,6.90
2023-04-02T20:43:54.457Z,7.00
2023-04-02T20:46:22.519Z,7.00
2023-04-02T20:48:49.403Z,6.90
2023-04-02T20:51:16.424Z,6.90
2023-04-02T20:53:43.511Z,6.90
2023-04-02T20:56:15.764Z,6.90
2023-04-02T20:58:43.768Z,6.90
2023-04-02T21:01:15.553Z,6.80
2023-04-02T21:03:42.934Z,6.70
2023-04-02T21:06:21.554Z,6.70
2023-04-02T21:08:49.214Z,6.80
2023-04-02T21:11:16.193Z,6.80
2023-04-02T21:13:44.217Z,6.80
2023-04-02T21:16:13.494Z,6.90
2023-04-02T21:18:41.304Z,6.80
2023-04-02T21:21:10.253Z,6.80
2023-04-02T21:23:37.006Z,6.80
2023-04-02T21:26:06.443Z,6.80
2023-04-02T21:28:34.885Z,6.90
2023-04-02T21:31:10.903Z,6.90
2023-04-02T21:33:40.534Z,6.90
2023-04-02T21:36:11.832Z,6.90
2023-04-02T21:38:50.186Z,7.00
2023-04-02T21:41:22.393Z,7.00
2023-04-02T21:43:52.796Z,6.90
2023-04-02T21:46:30.605Z,7.00
2023-04-02T21:48:59.354Z,7.00
2023-04-02T21:51:34.723Z,7.00
2023-04-02T21:54:02.029Z,7.00
2023-04-02T21:56:34.568Z,6.90
2023-04-02T21:59:02.876Z,6.90
2023-04-02T22:01:32.473Z,6.80
2023-04-02T22:04:02.357Z,6.80
2023-04-02T22:06:31.763Z,6.70
2023-04-02T22:09:05.143Z,6.80
2023-04-02T22:11:35.707Z,6.70
2023-04-02T22:14:03.658Z,6.80
2023-04-02T22:16:32.761Z,6.80
2023-04-02T22:19:02.316Z,6.80
2023-04-02T22:21:31.117Z,6.90
2023-04-02T22:24:06.250Z,6.90
2023-04-02T22:26:34.014Z,6.80
2023-04-02T22:29:01.534Z,6.80
2023-04-02T22:31:30.047Z,6.70
2023-04-02T22:33:57.834Z,6.70
2023-04-02T22:36:26.075Z,6.70
2023-04-02T22:38:53.213Z,6.80
2023-04-02T22:41:26.166Z,6.80
2023-04-02T22:43:54.131Z,6.90
2023-04-02T22:46:21.232Z,6.90
2023-04-02T22:48:49.493Z,6.80
2023-04-02T22:51:19.873Z,6.90
2023-04-02T22:53:47.803Z,6.90
2023-04-02T22:56:16.068Z,6.90
2023-04-02T22:58:43.557Z,7.00
2023-04-02T23:01:26.309Z,7.00
2023-04-02T23:03:54.551Z,7.00
2023-04-02T23:06:23.022Z,7.00
2023-04-02T23:08:50.571Z,7.00
2023-04-02T23:11:27.929Z,7.10
2023-04-02T23:13:56.789Z,7.10
2023-04-02T23:16:26.984Z,7.20
2023-04-02T23:18:55.491Z,7.20
2023-04-02T23:21:22.703Z,7.10
2023-04-02T23:23:50.507Z,7.10
2023-04-02T23:26:21.806Z,7.10
2023-04-02T23:28:49.776Z,7.10
2023-04-02T23:31:19.158Z,7.00
2023-04-02T23:33:46.236Z,7.10
2023-04-02T23:36:26.451Z,7.10
2023-04-02T23:38:55.516Z,7.00
2023-04-02T23:41:24.493Z,7.00
2023-04-02T23:43:51.570Z,6.90
2023-04-02T23:46:19.102Z,6.90
2023-04-02T23:48:46.819Z,6.90
2023-04-02T23:51:14.377Z,6.90
2023-04-02T23:53:41.191Z,6.90
2023-04-02T23:56:08.055Z,6.90
2023-04-02T23:58:35.357Z,7.00
